OIKQ  Dayrestan  Airport

Iran

Add Bookmark
ICAO OIKQ
Type Airport
Status Operational
Latitude
26° 45' 16" N
26.754601
Longitude
55° 54' 8" E
55.902401
Local (GMT +3.5 ) UTC
Oct 2, 2016 01:46 am Oct 1, 2016 22:16
Sunrise-Sunset Local UTC
Begin Civil Twilight 05:15 am 01:45
Sunrise 05:38 am 02:08
Sunset 05:32 pm 14:02
End Civil Twilight 05:55 pm 14:25
VFR
VFR
MVFR
MVFR
IFR
IFR
LIFR
LIFR
Unknown
Unavailable

Current Weather

METAR Observed MVFR
OIKQ 012100Z 06010KT 5000 BR NSC 30/26 Q1005 Sat, Oct 1, 2016 @ 21:00 UTC
(1 Hour, 16 Minutes ago)
Marginal Visual Flight Rules
Wind Visibility Conditions
060° at 10 knots (19 kph) 5,005 m
  • Mist
Temperatures Readings Precipitation
Current Temp
30°C
86°F
Dewpoint
26°C
79°F
Heat Index
37°C
99°
Humidity 79%
Altimeter 29.68" Hg
Sea Level Pressure 1,005 mb
Field Elevation
12 m
39 ft
None Recorded

Additional weather within a 92.6km radius of OIKQ

Map ICAO Location
OIKB 69.8km NE (042°)
VFR
VFR
MVFR
MVFR
IFR
IFR
LIFR
LIFR
Unknown
Unavailable
-
-

CheckWX.com is intended as a tool to help pilots better visualize weather data. It is not intended as a substitute for an official weather briefing obtained from a Flight Service Station. CheckWX.com does not meet the FAA requirements for an official pre-flight weather briefing. Therefore, it's important that pilots still call and obtain an official FSS pre-flight weather briefing.

© 2007-2016 CheckWX.com
22:16:32 UTC